createdAt,value
2019-05-11T00:04:18.807Z,99.90
2019-05-11T00:20:40.221Z,99.90
2019-05-11T00:25:56.003Z,99.90
2019-05-11T00:36:33.897Z,99.90
2019-05-11T00:41:48.914Z,99.90
2019-05-11T00:46:57.032Z,99.90
2019-05-11T00:52:07.718Z,99.90
2019-05-11T00:57:28.483Z,99.90
2019-05-11T01:02:45.835Z,99.90
2019-05-11T01:07:56.744Z,99.90
2019-05-11T01:13:04.640Z,99.90
2019-05-11T01:18:13.002Z,99.90
2019-05-11T01:23:31.704Z,99.90
2019-05-11T01:28:44.332Z,99.90
2019-05-11T01:33:54.511Z,99.90
2019-05-11T01:39:05.789Z,99.90
2019-05-11T01:44:13.109Z,99.90
2019-05-11T01:49:23.553Z,99.90
2019-05-11T01:54:31.684Z,99.90
2019-05-11T01:59:41.949Z,99.90
2019-05-11T02:04:59.510Z,99.90
2019-05-11T02:10:33.182Z,99.90
2019-05-11T02:15:42.301Z,99.90
2019-05-11T02:20:59.442Z,99.90
2019-05-11T02:26:08.106Z,99.70
2019-05-11T02:31:16.782Z,99.60
2019-05-11T02:36:29.174Z,99.30
2019-05-11T02:41:38.480Z,99.10
2019-05-11T02:47:16.280Z,98.90
2019-05-11T02:52:27.969Z,98.80
2019-05-11T02:57:35.761Z,98.70
2019-05-11T03:02:44.617Z,98.40
2019-05-11T03:07:54.260Z,98.20
2019-05-11T03:13:05.920Z,97.70
2019-05-11T03:18:21.316Z,97.50
2019-05-11T03:23:45.511Z,97.50
2019-05-11T03:28:57.236Z,97.50
2019-05-11T03:34:06.259Z,97.00
2019-05-11T03:39:16.659Z,97.10
2019-05-11T03:44:28.821Z,96.90
2019-05-11T03:49:35.886Z,96.80
2019-05-11T03:54:51.911Z,96.70
2019-05-11T04:00:01.661Z,96.50
2019-05-11T04:05:18.804Z,96.50
2019-05-11T04:10:28.267Z,96.40
2019-05-11T04:15:45.837Z,96.10
2019-05-11T04:21:16.121Z,95.80
2019-05-11T04:31:55.076Z,95.50
2019-05-11T04:37:12.289Z,95.20
2019-05-11T04:42:20.714Z,95.00
2019-05-11T04:47:36.427Z,94.60
2019-05-11T04:52:48.791Z,94.40
2019-05-11T04:57:59.435Z,94.30
2019-05-11T05:03:10.046Z,94.20
2019-05-11T05:08:26.485Z,94.00
2019-05-11T05:13:43.495Z,93.10
2019-05-11T05:18:54.471Z,92.60
2019-05-11T05:24:06.140Z,93.00
2019-05-11T05:29:15.906Z,93.30
2019-05-11T05:39:53.496Z,92.80
2019-05-11T05:45:03.063Z,92.40
2019-05-11T05:50:18.519Z,91.90
2019-05-11T05:55:27.746Z,91.40
2019-05-11T06:00:35.949Z,91.70
2019-05-11T06:05:44.351Z,91.20
2019-05-11T06:10:56.519Z,91.50
2019-05-11T06:16:08.562Z,91.30
2019-05-11T06:21:17.402Z,90.40
2019-05-11T06:26:26.881Z,91.60
2019-05-11T06:31:35.503Z,90.70
2019-05-11T06:36:43.644Z,90.60
2019-05-11T06:41:55.841Z,90.00
2019-05-11T06:47:04.252Z,90.70
2019-05-11T06:52:12.474Z,90.80
2019-05-11T06:57:21.500Z,90.60
2019-05-11T07:02:29.845Z,90.70
2019-05-11T07:07:47.268Z,90.20
2019-05-11T07:12:48.099Z,90.10
2019-05-11T07:17:56.694Z,89.70
2019-05-11T07:23:04.935Z,89.50
2019-05-11T07:28:13.266Z,88.10
2019-05-11T07:33:21.674Z,88.00
2019-05-11T07:38:29.713Z,89.20
2019-05-11T07:43:38.116Z,89.20
2019-05-11T07:48:47.963Z,89.10
2019-05-11T07:53:57.799Z,89.40
2019-05-11T07:59:09.688Z,89.80
2019-05-11T08:04:18.302Z,89.70
2019-05-11T08:09:27.827Z,88.80
2019-05-11T08:14:55.926Z,87.90
2019-05-11T08:19:53.646Z,88.70
2019-05-11T08:25:09.392Z,88.10
2019-05-11T08:30:18.820Z,87.20
2019-05-11T08:35:48.028Z,86.90
2019-05-11T08:40:56.196Z,87.50
2019-05-11T08:46:04.739Z,87.60
2019-05-11T08:51:18.008Z,87.00
2019-05-11T08:56:28.734Z,86.20
2019-05-11T09:01:39.054Z,85.50
2019-05-11T09:06:44.848Z,86.60
2019-05-11T09:11:55.196Z,86.00
2019-05-11T09:17:03.482Z,86.20
2019-05-11T09:22:14.033Z,86.80
2019-05-11T09:27:22.388Z,86.20
2019-05-11T09:32:40.726Z,85.90
2019-05-11T09:37:58.610Z,84.70
2019-05-11T09:43:09.298Z,85.30
2019-05-11T09:48:18.098Z,85.10
2019-05-11T09:53:28.669Z,83.80
2019-05-11T09:58:39.818Z,83.00
2019-05-11T10:03:48.362Z,83.80
2019-05-11T10:08:57.883Z,82.40
2019-05-11T10:14:08.334Z,83.90
2019-05-11T10:19:17.688Z,84.40
2019-05-11T10:24:32.302Z,85.40
2019-05-11T10:29:44.374Z,85.20
2019-05-11T10:34:53.089Z,85.80
2019-05-11T10:40:01.527Z,86.10
2019-05-11T10:45:11.165Z,85.20
2019-05-11T10:50:20.028Z,85.60
2019-05-11T10:55:29.125Z,86.50
2019-05-11T11:00:38.859Z,86.90
2019-05-11T11:05:48.781Z,87.20
2019-05-11T11:10:58.622Z,88.10
2019-05-11T11:16:08.498Z,88.70
2019-05-11T11:21:22.087Z,89.40
2019-05-11T11:26:28.459Z,89.90
2019-05-11T11:31:38.018Z,90.10
2019-05-11T11:36:48.145Z,90.10
2019-05-11T11:41:58.537Z,90.30
2019-05-11T11:47:08.716Z,90.60
2019-05-11T11:52:19.114Z,90.60
2019-05-11T11:57:28.388Z,90.60
2019-05-11T12:02:38.566Z,90.60
2019-05-11T12:07:45.802Z,90.80
2019-05-11T12:12:53.930Z,90.90
2019-05-11T12:18:02.515Z,91.00
2019-05-11T12:28:29.407Z,91.10
2019-05-11T12:33:38.569Z,91.40
2019-05-11T12:38:48.805Z,91.60
2019-05-11T12:43:57.755Z,91.70
2019-05-11T12:49:07.328Z,91.90
2019-05-11T12:54:14.732Z,92.20
2019-05-11T12:59:22.698Z,92.30
2019-05-11T13:04:30.721Z,92.40
2019-05-11T13:09:38.806Z,92.60
2019-05-11T13:14:48.646Z,92.70
2019-05-11T13:19:55.795Z,92.90
2019-05-11T13:25:03.633Z,92.90
2019-05-11T13:30:11.580Z,92.90
2019-05-11T13:35:21.529Z,93.40
2019-05-11T13:40:30.178Z,93.40
2019-05-11T13:45:38.751Z,93.30
2019-05-11T13:50:47.957Z,93.40
2019-05-11T13:56:18.438Z,93.60
2019-05-11T14:01:27.886Z,93.70
2019-05-11T14:06:37.648Z,94.00
2019-05-11T14:11:45.043Z,94.10
2019-05-11T14:16:53.550Z,94.10
2019-05-11T14:22:02.061Z,94.10
2019-05-11T14:27:10.927Z,94.30
2019-05-11T14:37:58.784Z,94.60
2019-05-11T14:43:13.331Z,94.60
2019-05-11T14:48:26.664Z,94.70
2019-05-11T14:53:29.534Z,94.90
2019-05-11T14:58:39.198Z,95.10
2019-05-11T15:03:48.759Z,95.10
2019-05-11T15:08:58.613Z,95.30
2019-05-11T15:14:09.585Z,95.50
2019-05-11T15:19:18.477Z,95.80
2019-05-11T15:24:30.246Z,95.80
2019-05-11T15:29:39.242Z,95.60
2019-05-11T15:40:30.399Z,95.80
2019-05-11T15:45:48.557Z,95.70
2019-05-11T15:50:58.530Z,95.70
2019-05-11T16:01:48.745Z,96.10
2019-05-11T16:07:24.292Z,96.20
2019-05-11T16:12:28.630Z,96.30
2019-05-11T16:17:40.388Z,96.50
2019-05-11T16:33:31.682Z,96.70
2019-05-11T16:38:39.704Z,96.90
2019-05-11T16:43:48.632Z,97.00
2019-05-11T16:49:04.344Z,96.90
2019-05-11T16:54:20.353Z,97.00
2019-05-11T16:59:32.837Z,97.20
2019-05-11T17:04:42.452Z,97.50
2019-05-11T17:09:49.894Z,97.90
2019-05-11T17:14:59.359Z,98.00
2019-05-11T17:20:08.376Z,98.00
2019-05-11T17:25:19.273Z,98.10
2019-05-11T17:30:28.018Z,98.10
2019-05-11T17:35:35.427Z,98.00
2019-05-11T17:40:48.294Z,97.90
2019-05-11T17:45:55.703Z,97.90
2019-05-11T17:51:17.545Z,98.00
2019-05-11T17:56:12.246Z,98.10
2019-05-11T18:01:19.996Z,98.20
2019-05-11T18:06:29.084Z,98.30
2019-05-11T18:11:40.195Z,98.50
2019-05-11T18:16:52.870Z,98.50
2019-05-11T18:22:02.827Z,98.60
2019-05-11T18:27:11.218Z,98.70
2019-05-11T18:32:19.029Z,98.90
2019-05-11T18:37:28.096Z,98.80
2019-05-11T18:42:35.293Z,98.90
2019-05-11T18:47:42.326Z,99.00
2019-05-11T18:52:50.002Z,99.10
2019-05-11T18:57:58.600Z,99.20
2019-05-11T19:03:08.831Z,99.20
2019-05-11T19:08:18.800Z,99.30
2019-05-11T19:13:25.004Z,99.40
2019-05-11T19:18:32.559Z,99.30
2019-05-11T19:23:41.660Z,99.30
2019-05-11T19:28:49.105Z,99.30
2019-05-11T19:33:58.143Z,99.30
2019-05-11T19:39:08.796Z,99.10
2019-05-11T19:44:18.731Z,99.10
2019-05-11T19:49:28.030Z,98.90
2019-05-11T19:54:38.245Z,98.90
2019-05-11T19:59:47.905Z,98.90
2019-05-11T20:04:55.267Z,98.90
2019-05-11T20:10:03.318Z,98.90
2019-05-11T20:15:11.904Z,99.00
2019-05-11T20:20:19.606Z,99.10
2019-05-11T20:25:28.872Z,99.40
2019-05-11T20:30:35.635Z,99.30
2019-05-11T20:35:43.180Z,99.20
2019-05-11T20:40:51.332Z,99.10
2019-05-11T20:46:00.181Z,99.20
2019-05-11T20:51:10.939Z,99.30
2019-05-11T20:56:18.722Z,99.40
2019-05-11T21:06:53.293Z,99.30
2019-05-11T21:12:02.991Z,99.40
2019-05-11T21:17:10.984Z,99.40
2019-05-11T21:22:20.597Z,99.50
2019-05-11T21:27:28.823Z,99.60
2019-05-11T21:32:37.596Z,99.50
2019-05-11T21:37:44.997Z,99.50
2019-05-11T21:42:53.310Z,99.60
2019-05-11T21:48:00.664Z,99.70
2019-05-11T21:53:10.640Z,99.90
2019-05-11T21:58:18.213Z,99.90
2019-05-11T22:03:27.929Z,99.90
2019-05-11T22:08:35.162Z,99.90
2019-05-11T22:13:42.884Z,99.90
2019-05-11T22:18:50.282Z,99.90
2019-05-11T22:23:58.658Z,99.90
2019-05-11T22:29:07.889Z,99.90
2019-05-11T22:34:17.705Z,99.90
2019-05-11T22:39:26.245Z,99.90
2019-05-11T22:44:35.852Z,99.90
2019-05-11T22:49:44.457Z,99.90
2019-05-11T22:54:53.066Z,99.90
2019-05-11T23:00:01.712Z,99.90
2019-05-11T23:05:11.557Z,99.90
2019-05-11T23:10:18.915Z,99.90
2019-05-11T23:15:29.317Z,99.90
2019-05-11T23:20:38.614Z,99.90
2019-05-11T23:25:45.633Z,99.90
2019-05-11T23:30:58.245Z,99.90
2019-05-11T23:36:13.126Z,99.90
2019-05-11T23:41:28.765Z,99.90
2019-05-11T23:46:52.123Z,99.90
2019-05-11T23:52:11.898Z,99.90
2019-05-11T23:57:02.677Z,99.90
